sensor_id;sensor_type;location;lat;lon;timestamp;P1;durP1;ratioP1;P2;durP2;ratioP2
11189;SDS011;5651;50.926;4.718;2023-04-01T00:00:27;7.53;;;1.42;;
11189;SDS011;5651;50.926;4.718;2023-04-01T00:03:00;3.93;;;1.60;;
11189;SDS011;5651;50.926;4.718;2023-04-01T00:05:26;3.17;;;1.30;;
11189;SDS011;5651;50.926;4.718;2023-04-01T00:07:52;4.65;;;1.60;;
11189;SDS011;5651;50.926;4.718;2023-04-01T00:10:17;10.05;;;1.88;;
11189;SDS011;5651;50.926;4.718;2023-04-01T00:12:44;3.30;;;1.20;;
11189;SDS011;5651;50.926;4.718;2023-04-01T00:15:10;9.63;;;3.53;;
11189;SDS011;5651;50.926;4.718;2023-04-01T00:17:37;6.07;;;1.30;;
11189;SDS011;5651;50.926;4.718;2023-04-01T00:20:03;3.90;;;1.60;;
11189;SDS011;5651;50.926;4.718;2023-04-01T00:22:30;5.65;;;1.40;;
11189;SDS011;5651;50.926;4.718;2023-04-01T00:24:56;3.83;;;1.55;;
11189;SDS011;5651;50.926;4.718;2023-04-01T00:27:22;7.20;;;1.92;;
11189;SDS011;5651;50.926;4.718;2023-04-01T00:29:48;5.88;;;1.48;;
11189;SDS011;5651;50.926;4.718;2023-04-01T00:32:14;5.05;;;2.00;;
11189;SDS011;5651;50.926;4.718;2023-04-01T00:34:40;5.28;;;2.10;;
11189;SDS011;5651;50.926;4.718;2023-04-01T00:37:07;4.95;;;1.40;;
11189;SDS011;5651;50.926;4.718;2023-04-01T00:39:34;4.25;;;1.80;;
11189;SDS011;5651;50.926;4.718;2023-04-01T00:42:00;7.03;;;1.80;;
11189;SDS011;5651;50.926;4.718;2023-04-01T00:44:31;6.97;;;1.30;;
11189;SDS011;5651;50.926;4.718;2023-04-01T00:46:59;6.07;;;1.70;;
11189;SDS011;5651;50.926;4.718;2023-04-01T00:49:42;2.67;;;1.30;;
11189;SDS011;5651;50.926;4.718;2023-04-01T00:52:11;3.80;;;1.50;;
11189;SDS011;5651;50.926;4.718;2023-04-01T00:54:41;3.83;;;1.40;;
11189;SDS011;5651;50.926;4.718;2023-04-01T00:59:49;4.45;;;1.20;;
11189;SDS011;5651;50.926;4.718;2023-04-01T01:02:19;6.60;;;1.85;;
11189;SDS011;5651;50.926;4.718;2023-04-01T01:04:46;5.15;;;1.80;;
11189;SDS011;5651;50.926;4.718;2023-04-01T01:18:02;4.82;;;1.55;;
11189;SDS011;5651;50.926;4.718;2023-04-01T01:29:07;3.10;;;1.50;;
11189;SDS011;5651;50.926;4.718;2023-04-01T01:37:18;7.35;;;1.60;;
11189;SDS011;5651;50.926;4.718;2023-04-01T01:39:49;6.20;;;2.60;;
11189;SDS011;5651;50.926;4.718;2023-04-01T01:42:20;4.15;;;1.35;;
11189;SDS011;5651;50.926;4.718;2023-04-01T01:44:50;6.85;;;1.52;;
11189;SDS011;5651;50.926;4.718;2023-04-01T01:47:19;6.55;;;1.98;;
11189;SDS011;5651;50.926;4.718;2023-04-01T01:49:47;6.32;;;1.92;;
11189;SDS011;5651;50.926;4.718;2023-04-01T01:52:14;2.72;;;1.20;;
11189;SDS011;5651;50.926;4.718;2023-04-01T01:54:46;4.30;;;1.75;;
11189;SDS011;5651;50.926;4.718;2023-04-01T01:57:16;4.40;;;1.70;;
11189;SDS011;5651;50.926;4.718;2023-04-01T01:59:45;5.20;;;1.67;;
11189;SDS011;5651;50.926;4.718;2023-04-01T02:02:13;3.60;;;1.95;;
11189;SDS011;5651;50.926;4.718;2023-04-01T02:04:41;2.75;;;1.35;;
11189;SDS011;5651;50.926;4.718;2023-04-01T02:07:12;6.05;;;2.05;;
11189;SDS011;5651;50.926;4.718;2023-04-01T02:09:44;3.90;;;1.85;;
11189;SDS011;5651;50.926;4.718;2023-04-01T02:12:11;3.17;;;1.70;;
11189;SDS011;5651;50.926;4.718;2023-04-01T02:17:11;3.72;;;2.10;;
11189;SDS011;5651;50.926;4.718;2023-04-01T02:19:43;5.22;;;2.28;;
11189;SDS011;5651;50.926;4.718;2023-04-01T02:22:16;4.47;;;2.33;;
11189;SDS011;5651;50.926;4.718;2023-04-01T02:24:47;6.90;;;2.47;;
11189;SDS011;5651;50.926;4.718;2023-04-01T02:27:15;5.97;;;2.60;;
11189;SDS011;5651;50.926;4.718;2023-04-01T02:29:42;9.02;;;3.25;;
11189;SDS011;5651;50.926;4.718;2023-04-01T02:32:08;6.53;;;2.75;;
11189;SDS011;5651;50.926;4.718;2023-04-01T02:34:35;7.65;;;2.97;;
11189;SDS011;5651;50.926;4.718;2023-04-01T02:37:01;7.72;;;2.90;;
11189;SDS011;5651;50.926;4.718;2023-04-01T02:39:27;5.00;;;2.53;;
11189;SDS011;5651;50.926;4.718;2023-04-01T02:41:53;5.68;;;2.45;;
11189;SDS011;5651;50.926;4.718;2023-04-01T02:44:19;5.55;;;2.80;;
11189;SDS011;5651;50.926;4.718;2023-04-01T02:46:45;6.43;;;2.83;;
11189;SDS011;5651;50.926;4.718;2023-04-01T02:49:11;7.47;;;2.90;;
11189;SDS011;5651;50.926;4.718;2023-04-01T02:51:37;6.68;;;2.67;;
11189;SDS011;5651;50.926;4.718;2023-04-01T02:54:03;7.00;;;2.55;;
11189;SDS011;5651;50.926;4.718;2023-04-01T02:56:28;4.07;;;2.30;;
11189;SDS011;5651;50.926;4.718;2023-04-01T02:58:55;7.93;;;2.80;;
11189;SDS011;5651;50.926;4.718;2023-04-01T03:01:21;3.42;;;1.88;;
11189;SDS011;5651;50.926;4.718;2023-04-01T03:03:47;4.05;;;1.95;;
11189;SDS011;5651;50.926;4.718;2023-04-01T03:06:14;8.75;;;3.47;;
11189;SDS011;5651;50.926;4.718;2023-04-01T03:08:41;6.28;;;2.60;;
11189;SDS011;5651;50.926;4.718;2023-04-01T03:11:08;7.75;;;2.67;;
11189;SDS011;5651;50.926;4.718;2023-04-01T03:13:35;9.85;;;2.83;;
11189;SDS011;5651;50.926;4.718;2023-04-01T03:16:01;7.57;;;2.75;;
11189;SDS011;5651;50.926;4.718;2023-04-01T03:18:27;7.93;;;2.50;;
11189;SDS011;5651;50.926;4.718;2023-04-01T03:20:53;8.65;;;2.30;;
11189;SDS011;5651;50.926;4.718;2023-04-01T03:23:18;5.53;;;2.58;;
11189;SDS011;5651;50.926;4.718;2023-04-01T03:25:46;6.40;;;2.50;;
11189;SDS011;5651;50.926;4.718;2023-04-01T03:28:12;7.88;;;2.85;;
11189;SDS011;5651;50.926;4.718;2023-04-01T03:30:38;9.75;;;3.13;;
11189;SDS011;5651;50.926;4.718;2023-04-01T03:33:05;9.55;;;3.80;;
11189;SDS011;5651;50.926;4.718;2023-04-01T03:35:32;6.75;;;2.83;;
11189;SDS011;5651;50.926;4.718;2023-04-01T03:37:58;9.57;;;3.88;;
11189;SDS011;5651;50.926;4.718;2023-04-01T03:40:24;15.48;;;3.53;;
11189;SDS011;5651;50.926;4.718;2023-04-01T03:42:51;10.48;;;3.78;;
11189;SDS011;5651;50.926;4.718;2023-04-01T03:45:17;9.40;;;3.40;;
11189;SDS011;5651;50.926;4.718;2023-04-01T03:47:43;12.02;;;3.92;;
11189;SDS011;5651;50.926;4.718;2023-04-01T03:50:10;11.95;;;3.90;;
11189;SDS011;5651;50.926;4.718;2023-04-01T03:52:35;8.18;;;3.58;;
11189;SDS011;5651;50.926;4.718;2023-04-01T03:55:01;7.90;;;3.10;;
11189;SDS011;5651;50.926;4.718;2023-04-01T03:57:27;11.73;;;4.63;;
11189;SDS011;5651;50.926;4.718;2023-04-01T03:59:53;12.38;;;3.97;;
11189;SDS011;5651;50.926;4.718;2023-04-01T04:02:19;8.38;;;3.08;;
11189;SDS011;5651;50.926;4.718;2023-04-01T04:04:45;9.32;;;3.47;;
11189;SDS011;5651;50.926;4.718;2023-04-01T04:07:12;11.23;;;3.50;;
11189;SDS011;5651;50.926;4.718;2023-04-01T04:09:37;16.27;;;6.43;;
11189;SDS011;5651;50.926;4.718;2023-04-01T04:12:03;16.27;;;4.97;;
11189;SDS011;5651;50.926;4.718;2023-04-01T04:14:30;11.63;;;4.68;;
11189;SDS011;5651;50.926;4.718;2023-04-01T04:16:57;13.40;;;5.25;;
11189;SDS011;5651;50.926;4.718;2023-04-01T04:19:23;12.18;;;5.18;;
11189;SDS011;5651;50.926;4.718;2023-04-01T04:21:49;15.98;;;7.93;;
11189;SDS011;5651;50.926;4.718;2023-04-01T04:24:15;12.18;;;6.30;;
11189;SDS011;5651;50.926;4.718;2023-04-01T04:26:41;15.95;;;6.25;;
11189;SDS011;5651;50.926;4.718;2023-04-01T04:29:06;15.10;;;5.82;;
11189;SDS011;5651;50.926;4.718;2023-04-01T04:31:32;13.55;;;6.18;;
11189;SDS011;5651;50.926;4.718;2023-04-01T04:33:59;13.13;;;6.30;;
11189;SDS011;5651;50.926;4.718;2023-04-01T04:36:26;17.27;;;6.38;;
11189;SDS011;5651;50.926;4.718;2023-04-01T04:38:52;15.68;;;5.63;;
11189;SDS011;5651;50.926;4.718;2023-04-01T04:41:18;18.60;;;6.50;;
11189;SDS011;5651;50.926;4.718;2023-04-01T04:43:52;14.50;;;5.13;;
11189;SDS011;5651;50.926;4.718;2023-04-01T04:46:19;15.90;;;6.18;;
11189;SDS011;5651;50.926;4.718;2023-04-01T04:48:46;14.70;;;6.90;;
11189;SDS011;5651;50.926;4.718;2023-04-01T04:51:12;16.80;;;6.07;;
11189;SDS011;5651;50.926;4.718;2023-04-01T04:53:43;16.73;;;6.28;;
11189;SDS011;5651;50.926;4.718;2023-04-01T04:56:09;13.93;;;5.90;;
11189;SDS011;5651;50.926;4.718;2023-04-01T04:58:36;13.70;;;4.68;;
11189;SDS011;5651;50.926;4.718;2023-04-01T05:01:06;7.97;;;4.20;;
11189;SDS011;5651;50.926;4.718;2023-04-01T05:03:37;11.35;;;4.38;;
11189;SDS011;5651;50.926;4.718;2023-04-01T05:06:03;10.60;;;4.70;;
11189;SDS011;5651;50.926;4.718;2023-04-01T05:08:31;11.63;;;4.28;;
11189;SDS011;5651;50.926;4.718;2023-04-01T05:10:58;9.52;;;3.90;;
11189;SDS011;5651;50.926;4.718;2023-04-01T05:13:24;10.10;;;3.95;;
11189;SDS011;5651;50.926;4.718;2023-04-01T05:15:50;9.80;;;4.40;;
11189;SDS011;5651;50.926;4.718;2023-04-01T05:18:16;15.15;;;4.40;;
11189;SDS011;5651;50.926;4.718;2023-04-01T05:20:49;10.55;;;4.45;;
11189;SDS011;5651;50.926;4.718;2023-04-01T05:23:16;8.98;;;4.28;;
11189;SDS011;5651;50.926;4.718;2023-04-01T05:25:42;8.40;;;4.50;;
11189;SDS011;5651;50.926;4.718;2023-04-01T05:28:10;8.82;;;4.22;;
11189;SDS011;5651;50.926;4.718;2023-04-01T05:30:36;9.02;;;3.92;;
11189;SDS011;5651;50.926;4.718;2023-04-01T05:33:04;5.38;;;3.13;;
11189;SDS011;5651;50.926;4.718;2023-04-01T05:35:30;6.82;;;3.50;;
11189;SDS011;5651;50.926;4.718;2023-04-01T05:37:56;6.63;;;3.03;;
11189;SDS011;5651;50.926;4.718;2023-04-01T05:40:22;6.13;;;2.97;;
11189;SDS011;5651;50.926;4.718;2023-04-01T05:42:48;6.32;;;2.78;;
11189;SDS011;5651;50.926;4.718;2023-04-01T05:45:14;8.65;;;3.42;;
11189;SDS011;5651;50.926;4.718;2023-04-01T05:47:41;4.93;;;2.90;;
11189;SDS011;5651;50.926;4.718;2023-04-01T05:50:10;8.18;;;3.35;;
11189;SDS011;5651;50.926;4.718;2023-04-01T05:52:36;4.00;;;2.63;;
11189;SDS011;5651;50.926;4.718;2023-04-01T05:55:03;3.63;;;2.25;;
11189;SDS011;5651;50.926;4.718;2023-04-01T05:57:29;4.63;;;2.63;;
11189;SDS011;5651;50.926;4.718;2023-04-01T05:59:55;3.13;;;2.33;;
11189;SDS011;5651;50.926;4.718;2023-04-01T06:02:21;4.50;;;2.22;;
11189;SDS011;5651;50.926;4.718;2023-04-01T06:04:48;5.72;;;2.20;;
11189;SDS011;5651;50.926;4.718;2023-04-01T06:07:15;4.93;;;2.78;;
11189;SDS011;5651;50.926;4.718;2023-04-01T06:09:42;4.93;;;2.47;;
11189;SDS011;5651;50.926;4.718;2023-04-01T06:12:15;3.55;;;2.30;;
11189;SDS011;5651;50.926;4.718;2023-04-01T06:20:26;3.47;;;2.22;;
11189;SDS011;5651;50.926;4.718;2023-04-01T06:47:32;7.30;;;4.30;;
11189;SDS011;5651;50.926;4.718;2023-04-01T06:52:43;7.05;;;3.55;;
11189;SDS011;5651;50.926;4.718;2023-04-01T06:58:04;5.85;;;3.33;;
11189;SDS011;5651;50.926;4.718;2023-04-01T07:00:37;8.33;;;3.83;;
11189;SDS011;5651;50.926;4.718;2023-04-01T07:03:09;9.95;;;3.25;;
11189;SDS011;5651;50.926;4.718;2023-04-01T07:05:45;6.72;;;3.60;;
11189;SDS011;5651;50.926;4.718;2023-04-01T07:08:13;7.00;;;2.85;;
11189;SDS011;5651;50.926;4.718;2023-04-01T07:13:55;4.00;;;2.40;;
11189;SDS011;5651;50.926;4.718;2023-04-01T07:18:59;4.75;;;2.22;;
11189;SDS011;5651;50.926;4.718;2023-04-01T07:21:47;4.72;;;1.70;;
11189;SDS011;5651;50.926;4.718;2023-04-01T07:24:27;5.40;;;2.03;;
11189;SDS011;5651;50.926;4.718;2023-04-01T07:26:58;3.50;;;1.80;;
11189;SDS011;5651;50.926;4.718;2023-04-01T07:29:24;4.72;;;2.20;;
11189;SDS011;5651;50.926;4.718;2023-04-01T07:31:58;5.22;;;2.17;;
11189;SDS011;5651;50.926;4.718;2023-04-01T07:37:22;1.65;;;1.40;;
11189;SDS011;5651;50.926;4.718;2023-04-01T07:51:11;2.28;;;1.70;;
11189;SDS011;5651;50.926;4.718;2023-04-01T07:53:46;3.30;;;1.70;;
11189;SDS011;5651;50.926;4.718;2023-04-01T07:56:26;3.92;;;1.98;;
11189;SDS011;5651;50.926;4.718;2023-04-01T08:05:14;1.88;;;1.40;;
11189;SDS011;5651;50.926;4.718;2023-04-01T08:21:05;2.78;;;1.20;;
11189;SDS011;5651;50.926;4.718;2023-04-01T08:23:46;1.77;;;1.23;;
11189;SDS011;5651;50.926;4.718;2023-04-01T08:34:24;2.15;;;1.20;;
11189;SDS011;5651;50.926;4.718;2023-04-01T08:36:59;2.67;;;1.13;;
11189;SDS011;5651;50.926;4.718;2023-04-01T08:39:31;3.35;;;1.10;;
11189;SDS011;5651;50.926;4.718;2023-04-01T08:45:09;1.73;;;1.05;;
11189;SDS011;5651;50.926;4.718;2023-04-01T08:48:04;3.35;;;1.20;;
11189;SDS011;5651;50.926;4.718;2023-04-01T09:08:02;1.45;;;1.33;;
11189;SDS011;5651;50.926;4.718;2023-04-01T09:13:43;1.80;;;1.40;;
11189;SDS011;5651;50.926;4.718;2023-04-01T09:19:31;0.90;;;0.90;;
11189;SDS011;5651;50.926;4.718;2023-04-01T09:25:02;1.15;;;0.90;;
11189;SDS011;5651;50.926;4.718;2023-04-01T09:44:42;1.70;;;1.38;;
11189;SDS011;5651;50.926;4.718;2023-04-01T10:02:04;2.30;;;1.60;;
11189;SDS011;5651;50.926;4.718;2023-04-01T10:07:59;5.20;;;2.83;;
11189;SDS011;5651;50.926;4.718;2023-04-01T10:13:47;4.80;;;3.22;;
11189;SDS011;5651;50.926;4.718;2023-04-01T10:24:48;6.65;;;3.17;;
11189;SDS011;5651;50.926;4.718;2023-04-01T10:41:15;4.65;;;3.22;;
11189;SDS011;5651;50.926;4.718;2023-04-01T11:05:52;3.57;;;1.80;;
11189;SDS011;5651;50.926;4.718;2023-04-01T11:09:27;3.92;;;1.92;;
11189;SDS011;5651;50.926;4.718;2023-04-01T11:43:47;1.88;;;1.33;;
11189;SDS011;5651;50.926;4.718;2023-04-01T11:46:33;1.60;;;1.50;;
11189;SDS011;5651;50.926;4.718;2023-04-01T12:08:33;2.15;;;1.35;;
11189;SDS011;5651;50.926;4.718;2023-04-01T12:24:49;1.20;;;1.10;;
11189;SDS011;5651;50.926;4.718;2023-04-01T12:30:29;1.10;;;0.90;;
11189;SDS011;5651;50.926;4.718;2023-04-01T12:55:38;4.10;;;1.33;;
11189;SDS011;5651;50.926;4.718;2023-04-01T13:01:10;3.20;;;1.50;;
11189;SDS011;5651;50.926;4.718;2023-04-01T13:12:15;1.45;;;1.17;;
11189;SDS011;5651;50.926;4.718;2023-04-01T13:15:10;1.00;;;0.90;;
11189;SDS011;5651;50.926;4.718;2023-04-01T13:18:01;0.65;;;0.60;;
11189;SDS011;5651;50.926;4.718;2023-04-01T13:23:20;1.23;;;0.85;;
11189;SDS011;5651;50.926;4.718;2023-04-01T13:28:56;0.95;;;0.90;;
11189;SDS011;5651;50.926;4.718;2023-04-01T13:39:42;3.30;;;1.10;;
11189;SDS011;5651;50.926;4.718;2023-04-01T13:42:23;1.55;;;0.90;;
11189;SDS011;5651;50.926;4.718;2023-04-01T13:45:02;3.85;;;1.33;;
11189;SDS011;5651;50.926;4.718;2023-04-01T13:47:55;0.80;;;0.80;;
11189;SDS011;5651;50.926;4.718;2023-04-01T13:50:46;0.75;;;0.75;;
11189;SDS011;5651;50.926;4.718;2023-04-01T14:13:31;0.95;;;0.90;;
11189;SDS011;5651;50.926;4.718;2023-04-01T14:16:14;1.33;;;1.08;;
11189;SDS011;5651;50.926;4.718;2023-04-01T14:21:17;1.23;;;1.10;;
11189;SDS011;5651;50.926;4.718;2023-04-01T14:24:12;1.95;;;1.50;;
11189;SDS011;5651;50.926;4.718;2023-04-01T14:27:08;4.75;;;2.40;;
11189;SDS011;5651;50.926;4.718;2023-04-01T14:50:46;7.82;;;5.18;;
11189;SDS011;5651;50.926;4.718;2023-04-01T14:53:23;7.97;;;5.32;;
11189;SDS011;5651;50.926;4.718;2023-04-01T14:55:54;8.07;;;5.70;;
11189;SDS011;5651;50.926;4.718;2023-04-01T14:58:47;6.63;;;4.68;;
11189;SDS011;5651;50.926;4.718;2023-04-01T15:28:49;7.45;;;5.50;;
11189;SDS011;5651;50.926;4.718;2023-04-01T15:45:49;8.77;;;5.70;;
11189;SDS011;5651;50.926;4.718;2023-04-01T15:51:17;6.47;;;4.70;;
11189;SDS011;5651;50.926;4.718;2023-04-01T16:02:42;8.38;;;5.45;;
11189;SDS011;5651;50.926;4.718;2023-04-01T16:05:27;9.02;;;5.45;;
11189;SDS011;5651;50.926;4.718;2023-04-01T16:10:38;12.50;;;4.03;;
11189;SDS011;5651;50.926;4.718;2023-04-01T16:13:21;3.72;;;2.92;;
11189;SDS011;5651;50.926;4.718;2023-04-01T16:19:31;2.92;;;2.60;;
11189;SDS011;5651;50.926;4.718;2023-04-01T16:25:17;4.40;;;2.97;;
11189;SDS011;5651;50.926;4.718;2023-04-01T16:30:57;4.80;;;2.95;;
11189;SDS011;5651;50.926;4.718;2023-04-01T16:36:28;3.45;;;2.67;;
11189;SDS011;5651;50.926;4.718;2023-04-01T16:44:32;5.35;;;3.15;;
11189;SDS011;5651;50.926;4.718;2023-04-01T16:47:19;4.72;;;2.40;;
11189;SDS011;5651;50.926;4.718;2023-04-01T16:49:56;4.90;;;3.35;;
11189;SDS011;5651;50.926;4.718;2023-04-01T16:53:08;5.97;;;3.45;;
11189;SDS011;5651;50.926;4.718;2023-04-01T16:58:27;5.78;;;4.05;;
11189;SDS011;5651;50.926;4.718;2023-04-01T17:01:07;7.13;;;3.60;;
11189;SDS011;5651;50.926;4.718;2023-04-01T17:03:40;7.90;;;3.85;;
11189;SDS011;5651;50.926;4.718;2023-04-01T17:17:34;8.13;;;4.18;;
11189;SDS011;5651;50.926;4.718;2023-04-01T17:25:48;8.43;;;4.93;;
11189;SDS011;5651;50.926;4.718;2023-04-01T17:36:32;9.70;;;6.90;;
11189;SDS011;5651;50.926;4.718;2023-04-01T17:39:04;10.27;;;6.63;;
11189;SDS011;5651;50.926;4.718;2023-04-01T17:50:17;8.40;;;5.88;;
11189;SDS011;5651;50.926;4.718;2023-04-01T17:55:43;11.23;;;6.00;;
11189;SDS011;5651;50.926;4.718;2023-04-01T18:18:24;8.57;;;6.60;;
11189;SDS011;5651;50.926;4.718;2023-04-01T18:21:06;8.85;;;6.03;;
11189;SDS011;5651;50.926;4.718;2023-04-01T18:29:49;9.75;;;6.22;;
11189;SDS011;5651;50.926;4.718;2023-04-01T18:38:26;10.30;;;7.60;;
11189;SDS011;5651;50.926;4.718;2023-04-01T18:40:39;12.32;;;8.02;;
11189;SDS011;5651;50.926;4.718;2023-04-01T18:43:15;12.93;;;7.20;;
11189;SDS011;5651;50.926;4.718;2023-04-01T18:50:55;12.82;;;9.13;;
11189;SDS011;5651;50.926;4.718;2023-04-01T18:55:54;12.00;;;8.23;;
11189;SDS011;5651;50.926;4.718;2023-04-01T19:04:22;12.90;;;8.40;;
11189;SDS011;5651;50.926;4.718;2023-04-01T19:06:59;11.30;;;7.85;;
11189;SDS011;5651;50.926;4.718;2023-04-01T19:09:31;13.38;;;7.93;;
11189;SDS011;5651;50.926;4.718;2023-04-01T19:12:17;13.05;;;8.05;;
11189;SDS011;5651;50.926;4.718;2023-04-01T19:17:38;14.43;;;8.75;;
11189;SDS011;5651;50.926;4.718;2023-04-01T19:25:49;16.33;;;8.75;;
11189;SDS011;5651;50.926;4.718;2023-04-01T19:28:42;13.52;;;7.93;;
11189;SDS011;5651;50.926;4.718;2023-04-01T19:34:13;12.88;;;8.20;;
11189;SDS011;5651;50.926;4.718;2023-04-01T19:36:44;15.65;;;7.85;;
11189;SDS011;5651;50.926;4.718;2023-04-01T19:41:54;16.65;;;8.60;;
11189;SDS011;5651;50.926;4.718;2023-04-01T19:50:08;16.40;;;8.82;;
11189;SDS011;5651;50.926;4.718;2023-04-01T19:53:05;14.45;;;8.85;;
11189;SDS011;5651;50.926;4.718;2023-04-01T20:00:53;19.38;;;9.00;;
11189;SDS011;5651;50.926;4.718;2023-04-01T20:11:29;18.05;;;9.48;;
11189;SDS011;5651;50.926;4.718;2023-04-01T20:17:01;16.95;;;8.88;;
11189;SDS011;5651;50.926;4.718;2023-04-01T20:25:11;14.32;;;8.95;;
11189;SDS011;5651;50.926;4.718;2023-04-01T20:27:47;18.05;;;9.95;;
11189;SDS011;5651;50.926;4.718;2023-04-01T20:30:30;16.83;;;9.88;;
11189;SDS011;5651;50.926;4.718;2023-04-01T20:44:22;30.95;;;13.77;;
11189;SDS011;5651;50.926;4.718;2023-04-01T20:46:55;26.33;;;14.45;;
11189;SDS011;5651;50.926;4.718;2023-04-01T20:52:32;29.50;;;15.73;;
11189;SDS011;5651;50.926;4.718;2023-04-01T20:58:09;31.35;;;15.48;;
11189;SDS011;5651;50.926;4.718;2023-04-01T21:06:06;33.83;;;17.90;;
11189;SDS011;5651;50.926;4.718;2023-04-01T21:08:57;36.55;;;18.17;;
11189;SDS011;5651;50.926;4.718;2023-04-01T21:11:51;37.42;;;18.25;;
11189;SDS011;5651;50.926;4.718;2023-04-01T21:31:43;26.58;;;13.80;;
11189;SDS011;5651;50.926;4.718;2023-04-01T21:36:59;21.35;;;10.95;;
11189;SDS011;5651;50.926;4.718;2023-04-01T21:42:19;22.27;;;11.80;;
11189;SDS011;5651;50.926;4.718;2023-04-01T21:53:09;22.67;;;11.85;;
11189;SDS011;5651;50.926;4.718;2023-04-01T21:56:08;21.48;;;11.27;;
11189;SDS011;5651;50.926;4.718;2023-04-01T22:05:30;31.10;;;14.85;;
11189;SDS011;5651;50.926;4.718;2023-04-01T22:07:32;29.80;;;16.67;;
11189;SDS011;5651;50.926;4.718;2023-04-01T22:13:03;35.15;;;17.73;;
11189;SDS011;5651;50.926;4.718;2023-04-01T22:18:19;32.47;;;18.52;;
11189;SDS011;5651;50.926;4.718;2023-04-01T22:20:56;32.97;;;17.25;;
11189;SDS011;5651;50.926;4.718;2023-04-01T22:31:59;30.85;;;16.27;;
11189;SDS011;5651;50.926;4.718;2023-04-01T22:37:42;32.00;;;17.20;;
11189;SDS011;5651;50.926;4.718;2023-04-01T22:40:29;32.70;;;17.65;;
11189;SDS011;5651;50.926;4.718;2023-04-01T22:43:08;34.10;;;17.05;;
11189;SDS011;5651;50.926;4.718;2023-04-01T22:48:20;30.77;;;17.52;;
11189;SDS011;5651;50.926;4.718;2023-04-01T22:56:20;27.58;;;16.35;;
11189;SDS011;5651;50.926;4.718;2023-04-01T22:58:54;30.38;;;16.02;;
11189;SDS011;5651;50.926;4.718;2023-04-01T23:01:24;30.23;;;16.00;;
11189;SDS011;5651;50.926;4.718;2023-04-01T23:03:54;33.72;;;17.33;;
11189;SDS011;5651;50.926;4.718;2023-04-01T23:06:27;29.02;;;15.48;;
11189;SDS011;5651;50.926;4.718;2023-04-01T23:09:06;34.00;;;17.02;;
11189;SDS011;5651;50.926;4.718;2023-04-01T23:14:35;30.10;;;15.57;;
11189;SDS011;5651;50.926;4.718;2023-04-01T23:19:49;32.38;;;15.80;;
11189;SDS011;5651;50.926;4.718;2023-04-01T23:22:46;26.50;;;14.48;;
11189;SDS011;5651;50.926;4.718;2023-04-01T23:25:36;29.00;;;15.40;;
11189;SDS011;5651;50.926;4.718;2023-04-01T23:36:01;26.95;;;15.38;;
11189;SDS011;5651;50.926;4.718;2023-04-01T23:38:38;25.55;;;14.20;;
11189;SDS011;5651;50.926;4.718;2023-04-01T23:41:30;25.08;;;14.88;;
11189;SDS011;5651;50.926;4.718;2023-04-01T23:44:03;23.45;;;13.63;;
11189;SDS011;5651;50.926;4.718;2023-04-01T23:46:33;24.63;;;13.98;;
11189;SDS011;5651;50.926;4.718;2023-04-01T23:49:00;23.50;;;12.98;;
11189;SDS011;5651;50.926;4.718;2023-04-01T23:51:35;23.98;;;13.70;;
11189;SDS011;5651;50.926;4.718;2023-04-01T23:54:10;24.77;;;13.98;;
11189;SDS011;5651;50.926;4.718;2023-04-01T23:56:46;25.35;;;13.27;;
11189;SDS011;5651;50.926;4.718;2023-04-01T23:59:17;18.08;;;10.75;;
